サンサルバドル の空港の天気 - METARとTAF

エルサルバドル国際空港 ( MSLP / SAL ) - エルサルバドル サンサルバドル
飛行場実況気象(Metar)
観測時間09/22 06:50 CST (09/22 12:50 UTC)
風向・風速北東 2m/s
視程10km以上
天気現象
少しの雲 雲底高度 610m
気温26℃
湿度79%
気圧1008hPa
METARMSLP 221250Z 04004KT 010V070 9999 FEW020 26/22 Q1008 A2979 NOSIG
過去の天気等 Google飛行場航空写真 Wunderground天気予報

過去48時間のMETAR

飛行場予報(TAF)
発表時間: 9/22 03:25 CST (9/22 09:25 UTC)
予報対象時間: 22日6時 CST ~ 23日6時 CST
風向・風速北東 4m/s
視程10km以上
少しの雲 雲底高度 820m
22日12時 CST から
風向・風速南南西 5m/s
全天の4割程度の雲 雲底高度 820m
全天の4割程度の積乱雲 雲底高度 1130m
22日18時 CST から
風向・風速北西 3m/s
視程10km以上
全天の4割程度の雲 雲底高度 700m
全天の4割程度の積乱雲 雲底高度 1130m
全天の4割程度の雲 雲底高度 1830m
22日18時 CST ~ 22日22時 CST に一時的に
風向・風速東 8m/s 瞬間風速 15m/s
視程3000m
天気現象強い雷雨
全天の8割程度の雲 雲底高度 700m
全天の4割程度の積乱雲 雲底高度 1010m
全天の8割程度の雲 雲底高度 1680m
TAF MSLP 220925Z 2212/2312 05008KT 9999 FEW027 TX33/2217Z TN23/2310Z
FM221800 20010KT SCT027 SCT037CB
FM230000 32006KT 9999 SCT023 SCT037CB SCT060
TEMPO 2300/2304 09015G30KT 3000 +TSRA BKN023 SCT033CB BKN055